createdAt,value
2023-01-13T00:06:31.597Z,98702.31
2023-01-13T00:12:48.223Z,98690.83
2023-01-13T00:16:06.631Z,98698.02
2023-01-13T00:19:18.907Z,98692.50
2023-01-13T00:22:31.009Z,98695.77
2023-01-13T00:25:42.924Z,98702.36
2023-01-13T00:28:55.658Z,98703.81
2023-01-13T00:32:07.769Z,98701.89
2023-01-13T00:35:19.913Z,98693.73
2023-01-13T00:38:32.191Z,98693.86
2023-01-13T01:12:43.849Z,98670.13
2023-01-13T01:19:38.869Z,98671.19
2023-01-13T01:26:21.236Z,98664.95
2023-01-13T01:29:33.146Z,98661.50
2023-01-13T01:32:45.554Z,98653.08
2023-01-13T01:35:57.640Z,98656.78
2023-01-13T01:39:11.683Z,98653.67
2023-01-13T01:42:39.768Z,98649.59
2023-01-13T01:45:52.826Z,98655.17
2023-01-13T01:49:14.134Z,98649.81
2023-01-13T01:52:30.627Z,98648.63
2023-01-13T01:55:44.278Z,98642.07
2023-01-13T01:58:58.723Z,98636.20
2023-01-13T02:02:11.045Z,98646.50
2023-01-13T02:05:23.581Z,98633.22
2023-01-13T02:08:35.822Z,98637.39
2023-01-13T02:12:02.955Z,98633.56
2023-01-13T02:15:18.680Z,98629.73
2023-01-13T03:11:58.427Z,98567.62
2023-01-13T03:18:54.061Z,98576.02
2023-01-13T03:22:14.750Z,98563.55
2023-01-13T03:25:32.290Z,98564.49
2023-01-13T04:09:31.674Z,98556.88
2023-01-13T04:15:46.901Z,98544.74
2023-01-13T04:18:59.564Z,98541.84
2023-01-13T04:22:11.663Z,98544.24
2023-01-13T04:25:24.090Z,98541.09
2023-01-13T04:28:35.973Z,98535.55
2023-01-13T04:31:48.182Z,98542.63
2023-01-13T04:35:00.109Z,98544.89
2023-01-13T04:38:16.179Z,98548.25
2023-01-13T04:41:28.805Z,98553.25
2023-01-13T04:44:40.908Z,98555.52
2023-01-13T04:53:53.874Z,98554.95
2023-01-13T04:57:05.772Z,98553.39
2023-01-13T05:00:22.482Z,98553.25
2023-01-13T05:03:34.356Z,98553.25
2023-01-13T05:06:47.314Z,98558.53
2023-01-13T05:09:59.191Z,98567.30
2023-01-13T05:16:28.976Z,98572.72
2023-01-13T05:19:43.238Z,98557.73
2023-01-13T05:23:09.848Z,98560.23
2023-01-13T05:26:22.155Z,98568.16
2023-01-13T05:29:34.028Z,98568.16
2023-01-13T05:32:46.148Z,98562.16
2023-01-13T05:35:58.059Z,98562.16
2023-01-13T05:39:10.068Z,98562.39
2023-01-13T05:42:36.598Z,98562.66
2023-01-13T05:45:49.131Z,98564.59
2023-01-13T05:49:01.767Z,98571.67
2023-01-13T05:52:13.883Z,98568.92
2023-01-13T05:55:25.828Z,98572.28
2023-01-13T05:58:37.959Z,98557.38
2023-01-13T06:01:50.769Z,98565.44
2023-01-13T06:05:03.419Z,98557.88
2023-01-13T06:08:16.196Z,98560.29
2023-01-13T06:11:28.093Z,98569.38
2023-01-13T06:14:44.045Z,98564.94
2023-01-13T06:17:57.219Z,98565.75
2023-01-13T06:21:09.849Z,98562.88
2023-01-13T06:43:06.768Z,98575.91
2023-01-13T07:14:33.619Z,98573.97
2023-01-13T07:17:45.464Z,98570.25
2023-01-13T07:21:02.980Z,98578.75
2023-01-13T07:24:15.290Z,98582.23
2023-01-13T07:27:27.166Z,98571.67
2023-01-13T07:30:39.449Z,98574.45
2023-01-13T07:33:51.639Z,98570.82
2023-01-13T07:37:03.562Z,98572.23
2023-01-13T07:40:18.279Z,98574.36
2023-01-13T07:43:36.062Z,98564.83
2023-01-13T07:46:48.520Z,98569.45
2023-01-13T07:50:00.351Z,98576.41
2023-01-13T07:53:12.574Z,98577.00
2023-01-13T07:56:25.568Z,98577.58
2023-01-13T07:59:38.017Z,98577.30
2023-01-13T08:02:50.052Z,98583.29
2023-01-13T08:06:02.134Z,98575.25
2023-01-13T08:09:14.393Z,98580.41
2023-01-13T08:12:40.987Z,98572.19
2023-01-13T08:16:00.424Z,98569.44
2023-01-13T08:19:12.317Z,98571.66
2023-01-13T08:22:24.181Z,98572.23
2023-01-13T08:25:36.947Z,98568.63
2023-01-13T08:28:49.457Z,98572.69
2023-01-13T08:32:01.336Z,98571.45
2023-01-13T08:35:14.993Z,98573.45
2023-01-13T08:38:27.330Z,98575.71
2023-01-13T08:41:54.031Z,98572.39
2023-01-13T08:45:06.356Z,98567.97
2023-01-13T08:48:18.293Z,98567.28
2023-01-13T08:51:30.236Z,98564.94
2023-01-13T08:54:43.362Z,98565.36
2023-01-13T08:58:06.430Z,98558.56
2023-01-13T09:01:14.804Z,98564.42
2023-01-13T09:04:31.902Z,98557.62
2023-01-13T09:07:43.352Z,98552.17
2023-01-13T09:10:55.259Z,98557.73
2023-01-13T09:14:07.153Z,98550.38
2023-01-13T09:17:19.651Z,98558.58
2023-01-13T09:20:31.671Z,98561.37
2023-01-13T09:23:43.757Z,98550.77
2023-01-13T09:26:57.304Z,98554.80
2023-01-13T09:30:10.847Z,98547.96
2023-01-13T09:33:37.416Z,98540.41
2023-01-13T09:36:49.402Z,98550.87
2023-01-13T09:40:01.229Z,98533.98
2023-01-13T09:43:35.562Z,98526.03
2023-01-13T09:46:52.583Z,98507.23
2023-01-13T09:50:06.723Z,98520.47
2023-01-13T09:53:24.934Z,98524.77
2023-01-13T09:56:36.948Z,98520.70
2023-01-13T09:59:50.035Z,98525.02
2023-01-13T10:03:25.835Z,98508.09
2023-01-13T10:06:42.516Z,98509.97
2023-01-13T10:09:58.556Z,98510.91
2023-01-13T10:13:22.764Z,98510.75
2023-01-13T10:16:42.404Z,98511.75
2023-01-13T10:20:00.041Z,98512.52
2023-01-13T10:23:20.930Z,98505.77
2023-01-13T10:26:52.022Z,98497.19
2023-01-13T10:30:04.042Z,98499.03
2023-01-13T10:33:21.479Z,98496.50
2023-01-13T10:36:33.890Z,98490.66
2023-01-13T10:39:51.512Z,98481.72
2023-01-13T10:43:13.253Z,98477.38
2023-01-13T10:46:26.199Z,98477.14
2023-01-13T10:49:43.558Z,98467.06
2023-01-13T10:53:22.519Z,98462.55
2023-01-13T10:56:38.121Z,98458.31
2023-01-13T10:59:51.208Z,98453.23
2023-01-13T11:03:22.269Z,98446.13
2023-01-13T11:06:37.705Z,98446.87
2023-01-13T11:09:49.678Z,98447.31
2023-01-13T11:13:13.726Z,98448.95
2023-01-13T11:16:26.294Z,98440.30
2023-01-13T11:19:40.826Z,98433.00
2023-01-13T11:22:55.966Z,98437.97
2023-01-13T11:26:14.520Z,98435.31
2023-01-13T11:29:34.114Z,98428.31
2023-01-13T11:32:57.054Z,98419.36
2023-01-13T11:36:20.372Z,98417.05
2023-01-13T11:39:38.372Z,98422.07
2023-01-13T11:42:56.291Z,98417.38
2023-01-13T11:46:09.699Z,98420.33
2023-01-13T11:49:29.639Z,98420.17
2023-01-13T11:52:55.514Z,98416.20
2023-01-13T11:56:19.961Z,98412.41
2023-01-13T12:00:11.033Z,98406.11
2023-01-13T12:03:35.758Z,98410.59
2023-01-13T12:06:50.124Z,98405.27
2023-01-13T12:10:13.794Z,98404.59
2023-01-13T12:13:36.919Z,98403.08
2023-01-13T12:16:54.371Z,98398.77
2023-01-13T12:20:16.643Z,98404.89
2023-01-13T12:23:34.724Z,98411.05
2023-01-13T12:26:50.781Z,98408.72
2023-01-13T12:30:09.593Z,98401.72
2023-01-13T12:33:30.374Z,98413.50
2023-01-13T12:36:54.117Z,98406.98
2023-01-13T12:40:40.909Z,98405.63
2023-01-13T12:44:11.515Z,98397.98
2023-01-13T12:47:52.152Z,98398.28
2023-01-13T12:51:08.165Z,98392.28
2023-01-13T12:55:00.252Z,98399.45
2023-01-13T12:58:23.848Z,98402.92
2023-01-13T13:01:44.686Z,98393.29
2023-01-13T13:04:58.985Z,98393.29
2023-01-13T13:08:20.817Z,98393.29
2023-01-13T13:12:04.109Z,98394.27
2023-01-13T13:15:28.694Z,98391.61
2023-01-13T13:18:40.906Z,98398.91
2023-01-13T13:22:48.915Z,98400.07
2023-01-13T13:26:11.384Z,98399.23
2023-01-13T13:29:44.305Z,98403.54
2023-01-13T13:33:22.971Z,98403.41
2023-01-13T13:37:09.646Z,98406.20
2023-01-13T13:40:38.928Z,98407.20
2023-01-13T13:44:06.392Z,98399.39
2023-01-13T13:47:16.788Z,98403.19
2023-01-13T13:50:32.500Z,98410.16
2023-01-13T13:53:47.705Z,98418.45
2023-01-13T13:57:00.949Z,98407.14
2023-01-13T14:00:27.352Z,98429.38
2023-01-13T14:03:41.772Z,98421.73
2023-01-13T14:07:04.950Z,98422.18
2023-01-13T14:10:24.734Z,98431.28
2023-01-13T14:13:38.131Z,98433.29
2023-01-13T14:16:51.838Z,98438.89
2023-01-13T14:20:09.628Z,98439.90
2023-01-13T14:23:28.074Z,98438.38
2023-01-13T14:26:40.386Z,98438.53
2023-01-13T14:29:53.735Z,98442.32
2023-01-13T14:33:06.617Z,98438.30
2023-01-13T14:36:25.631Z,98442.93
2023-01-13T14:39:46.158Z,98448.53
2023-01-13T14:43:06.032Z,98441.84
2023-01-13T14:46:21.050Z,98445.67
2023-01-13T14:49:39.619Z,98457.27
2023-01-13T14:53:00.592Z,98447.23
2023-01-13T14:56:55.085Z,98447.84
2023-01-13T15:00:22.340Z,98438.51
2023-01-13T15:03:42.299Z,98452.09
2023-01-13T15:06:57.695Z,98452.38
2023-01-13T15:10:18.183Z,98463.00
2023-01-13T15:13:41.156Z,98461.34
2023-01-13T15:16:54.773Z,98464.28
2023-01-13T15:20:06.938Z,98460.94
2023-01-13T15:23:19.143Z,98453.30
2023-01-13T15:26:34.173Z,98456.91
2023-01-13T15:29:46.089Z,98454.42
2023-01-13T15:32:59.104Z,98468.53
2023-01-13T15:36:17.421Z,98461.69
2023-01-13T15:39:29.609Z,98460.04
2023-01-13T15:42:55.994Z,98469.28
2023-01-13T15:46:33.990Z,98463.13
2023-01-13T15:49:49.091Z,98472.22
2023-01-13T15:53:01.038Z,98467.91
2023-01-13T15:56:20.132Z,98463.72
2023-01-13T15:59:34.358Z,98472.96
2023-01-13T16:02:46.692Z,98464.31
2023-01-13T16:05:58.877Z,98464.31
2023-01-13T16:09:11.668Z,98463.47
2023-01-13T16:12:23.940Z,98473.52
2023-01-13T16:15:36.593Z,98466.55
2023-01-13T16:18:48.824Z,98481.63
2023-01-13T16:22:01.000Z,98471.98
2023-01-13T16:25:19.079Z,98479.94
2023-01-13T16:28:34.397Z,98474.41
2023-01-13T16:31:46.842Z,98474.89
2023-01-13T16:34:59.829Z,98474.23
2023-01-13T16:38:13.691Z,98486.54
2023-01-13T16:41:26.225Z,98492.27
2023-01-13T16:44:38.270Z,98486.42
2023-01-13T16:47:51.180Z,98490.76
2023-01-13T16:51:04.380Z,98484.07
2023-01-13T16:54:17.160Z,98489.64
2023-01-13T16:57:29.208Z,98487.98
2023-01-13T17:00:41.766Z,98505.00
2023-01-13T17:03:54.411Z,98493.56
2023-01-13T17:07:11.918Z,98511.70
2023-01-13T17:10:27.669Z,98505.82
2023-01-13T17:13:39.725Z,98503.02
2023-01-13T17:16:52.244Z,98505.97
2023-01-13T17:20:05.609Z,98500.67
2023-01-13T17:23:17.522Z,98506.36
2023-01-13T17:26:41.729Z,98505.67
2023-01-13T17:29:53.760Z,98506.66
2023-01-13T17:33:05.775Z,98503.86
2023-01-13T17:36:17.918Z,98509.17
2023-01-13T17:39:31.624Z,98512.66
2023-01-13T17:42:44.220Z,98499.67
2023-01-13T17:45:57.629Z,98499.41
2023-01-13T17:49:09.869Z,98509.02
2023-01-13T17:52:21.937Z,98517.27
2023-01-13T17:55:33.890Z,98493.28
2023-01-13T17:58:46.889Z,98517.97
2023-01-13T18:01:59.181Z,98514.62
2023-01-13T18:05:12.907Z,98513.63
2023-01-13T18:08:26.326Z,98512.93
2023-01-13T18:11:38.606Z,98514.62
2023-01-13T18:14:50.579Z,98510.28
2023-01-13T18:18:02.923Z,98517.54
2023-01-13T18:21:35.866Z,98521.45
2023-01-13T18:25:02.735Z,98527.62
2023-01-13T18:28:14.643Z,98531.25
2023-01-13T18:31:26.592Z,98531.81
2023-01-13T18:34:39.001Z,98538.22
2023-01-13T18:37:52.281Z,98525.67
2023-01-13T18:41:06.392Z,98531.82
2023-01-13T18:44:18.434Z,98541.28
2023-01-13T18:47:33.617Z,98537.94
2023-01-13T18:50:45.734Z,98543.82
2023-01-13T18:53:57.969Z,98545.08
2023-01-13T18:57:10.588Z,98541.17
2023-01-13T19:00:27.190Z,98534.34
2023-01-13T19:03:39.346Z,98544.23
2023-01-13T19:06:53.400Z,98542.42
2023-01-13T19:10:06.428Z,98551.33
2023-01-13T19:13:18.609Z,98558.32
2023-01-13T19:16:30.531Z,98554.97
2023-01-13T19:19:50.826Z,98561.08
2023-01-13T19:23:02.877Z,98570.57
2023-01-13T19:26:16.824Z,98582.27
2023-01-13T19:29:32.587Z,98578.36
2023-01-13T19:32:45.115Z,98590.20
2023-01-13T19:36:01.027Z,98598.44
2023-01-13T19:39:14.106Z,98605.67
2023-01-13T19:42:40.809Z,98613.48
2023-01-13T19:45:54.627Z,98617.08
2023-01-13T19:49:06.663Z,98634.36
2023-01-13T19:52:19.279Z,98642.98
2023-01-13T19:55:32.218Z,98653.95
2023-01-13T19:58:46.190Z,98661.48
2023-01-13T20:01:58.328Z,98662.53
2023-01-13T20:05:14.307Z,98675.02
2023-01-13T20:08:27.478Z,98682.63
2023-01-13T20:11:39.658Z,98688.50
2023-01-13T20:14:51.937Z,98689.66
2023-01-13T20:18:04.617Z,98698.48
2023-01-13T20:21:17.041Z,98692.28
2023-01-13T20:24:29.633Z,98697.36
2023-01-13T20:33:53.470Z,98690.72
2023-01-13T20:37:05.476Z,98696.50
2023-01-13T20:43:17.811Z,98704.70
2023-01-13T20:46:30.130Z,98702.43
2023-01-13T20:53:11.979Z,98717.92
2023-01-13T20:56:23.953Z,98723.47
2023-01-13T21:05:36.492Z,98750.86
2023-01-13T21:15:03.555Z,98748.95
2023-01-13T21:24:15.818Z,98757.84
2023-01-13T21:27:28.430Z,98749.92
2023-01-13T21:30:41.516Z,98750.86
2023-01-13T21:33:59.383Z,98759.98
2023-01-13T21:37:11.806Z,98759.39
2023-01-13T21:40:23.712Z,98764.66
2023-01-13T21:43:50.558Z,98774.63
2023-01-13T21:47:17.501Z,98772.34
2023-01-13T21:50:32.722Z,98773.05
2023-01-13T21:53:44.661Z,98770.89
2023-01-13T21:56:56.566Z,98777.23
2023-01-13T22:00:09.610Z,98776.52
2023-01-13T22:03:22.442Z,98778.69
2023-01-13T22:06:34.683Z,98778.69
2023-01-13T22:09:46.940Z,98773.03
2023-01-13T22:13:05.028Z,98773.16
2023-01-13T22:16:18.277Z,98765.23
2023-01-13T22:19:30.868Z,98764.77
2023-01-13T22:22:43.246Z,98768.59
2023-01-13T22:25:55.611Z,98777.32
2023-01-13T22:29:07.618Z,98774.09
2023-01-13T22:32:21.034Z,98784.42
2023-01-13T22:35:33.297Z,98778.17
2023-01-13T22:38:45.702Z,98779.14
2023-01-13T22:41:59.038Z,98789.45
2023-01-13T22:45:14.339Z,98783.92
2023-01-13T22:48:26.435Z,98789.11
2023-01-13T22:51:38.737Z,98790.05
2023-01-13T22:54:50.899Z,98790.89
2023-01-13T22:58:03.560Z,98785.37
2023-01-13T23:01:21.323Z,98788.00
2023-01-13T23:04:33.763Z,98783.92
2023-01-13T23:07:46.028Z,98783.70
2023-01-13T23:11:00.522Z,98795.92
2023-01-13T23:14:16.001Z,98797.11
2023-01-13T23:17:27.974Z,98801.45
2023-01-13T23:20:40.901Z,98801.70
2023-01-13T23:23:53.631Z,98804.33
2023-01-13T23:27:05.851Z,98791.84
2023-01-13T23:30:19.754Z,98793.66
2023-01-13T23:33:32.439Z,98785.87
2023-01-13T23:36:45.642Z,98791.84
2023-01-13T23:39:57.746Z,98790.30
2023-01-13T23:43:10.060Z,98787.78
2023-01-13T23:46:22.224Z,98788.00
2023-01-13T23:49:35.011Z,98796.03
2023-01-13T23:52:46.964Z,98796.88
2023-01-13T23:56:04.370Z,98802.97
2023-01-13T23:59:16.577Z,98812.71
